Time;durP1;ratioP1;P1;durP2;ratioP2;P2;SDS_P1;SDS_P2;PMS_P1;PMS_P2;Temp;Humidity;BMP_temperature;BMP_pressure;BME280_temperature;BME280_humidity;BME280_pressure;Samples;Min_cycle;Max_cycle;Signal;HPM_P1;HPM_P2
2022/03/25 00:01:55;;;;;;;27.73;19.40;;;10.30;48.80;;;;;;5016389;28;20672;-85
2022/03/25 00:04:21;;;;;;;28.08;18.45;;;10.30;48.90;;;;;;5011648;28;20034;-84
2022/03/25 00:06:47;;;;;;;32.78;19.00;;;10.20;48.70;;;;;;5022899;28;20046;-85
2022/03/25 00:09:12;;;;;;;26.35;17.75;;;10.20;48.80;;;;;;5011540;28;20096;-83
2022/03/25 00:11:38;;;;;;;25.02;18.02;;;10.20;48.80;;;;;;5024553;28;20312;-84
2022/03/25 00:14:05;;;;;;;24.83;18.88;;;10.10;48.70;;;;;;5010131;28;20022;-85
2022/03/25 00:16:32;;;;;;;24.58;17.95;;;10.10;48.70;;;;;;5015489;28;20045;-84
2022/03/25 00:18:58;;;;;;;25.60;19.05;;;10.10;48.80;;;;;;5025692;28;20033;-84
2022/03/25 00:21:24;;;;;;;25.05;18.15;;;10.00;48.70;;;;;;5026182;28;20064;-85
2022/03/25 00:23:50;;;;;;;25.50;18.50;;;10.00;48.70;;;;;;5025948;28;20068;-86
2022/03/25 00:26:16;;;;;;;29.38;19.52;;;10.00;48.80;;;;;;5024823;28;20037;-86
2022/03/25 00:28:42;;;;;;;29.35;19.52;;;9.90;48.70;;;;;;5025537;28;20366;-85
2022/03/25 00:31:08;;;;;;;25.13;18.80;;;9.90;48.70;;;;;;5015026;28;20038;-86
2022/03/25 00:33:37;;;;;;;26.75;19.13;;;9.90;48.80;;;;;;5037664;28;20025;-84
2022/03/25 00:36:04;;;;;;;28.98;19.05;;;9.90;48.90;;;;;;5041490;28;20080;-84
2022/03/25 00:38:30;;;;;;;27.33;19.98;;;9.80;48.70;;;;;;5031399;28;20053;-84
2022/03/25 00:40:57;;;;;;;27.13;19.50;;;9.80;48.70;;;;;;5024123;28;20115;-85
2022/03/25 00:43:24;;;;;;;34.30;20.50;;;9.80;49.40;;;;;;5040591;28;20037;-86
2022/03/25 00:45:51;;;;;;;28.73;20.17;;;9.70;48.60;;;;;;5039696;28;20425;-86
2022/03/25 00:48:17;;;;;;;27.27;20.10;;;9.70;48.70;;;;;;5024940;28;20041;-85
2022/03/25 00:50:43;;;;;;;27.85;19.90;;;9.60;48.60;;;;;;5025009;28;20033;-85
2022/03/25 00:53:11;;;;;;;26.88;20.30;;;9.70;48.80;;;;;;5038793;28;20025;-84
2022/03/25 00:55:38;;;;;;;25.45;18.98;;;9.60;48.60;;;;;;5038527;28;20029;-85
2022/03/25 00:58:04;;;;;;;27.02;21.55;;;9.60;48.70;;;;;;5013220;28;20038;-84
2022/03/25 01:00:31;;;;;;;28.52;21.17;;;9.60;48.80;;;;;;5021275;28;20029;-83
2022/03/25 01:02:56;;;;;;;32.70;21.25;;;9.60;48.80;;;;;;5027602;28;20586;-84
2022/03/25 01:05:22;;;;;;;32.95;19.73;;;9.50;48.70;;;;;;5025225;28;20041;-84
2022/03/25 01:07:48;;;;;;;31.98;19.67;;;9.50;48.70;;;;;;5040006;28;20544;-83
2022/03/25 01:10:14;;;;;;;26.85;18.45;;;9.50;48.80;;;;;;5025060;28;20123;-84
2022/03/25 01:12:40;;;;;;;32.50;20.08;;;9.40;48.70;;;;;;5024383;28;20117;-82
2022/03/25 01:15:07;;;;;;;26.65;19.77;;;9.40;48.70;;;;;;5024754;28;20087;-83
2022/03/25 01:17:33;;;;;;;26.83;19.77;;;9.40;48.80;;;;;;5021006;28;20127;-81
2022/03/25 01:19:59;;;;;;;29.42;20.42;;;9.30;48.60;;;;;;5024471;28;20041;-81
2022/03/25 01:22:25;;;;;;;32.03;21.77;;;9.30;48.70;;;;;;5036487;28;20394;-82
2022/03/25 01:24:51;;;;;;;28.13;20.70;;;9.30;48.70;;;;;;5019224;28;20466;-82
2022/03/25 01:27:17;;;;;;;28.25;21.42;;;9.30;48.80;;;;;;5039581;28;20033;-82
2022/03/25 01:29:43;;;;;;;28.80;19.95;;;9.30;48.80;;;;;;5024335;28;20129;-81
2022/03/25 01:32:09;;;;;;;29.52;21.45;;;9.20;49.20;;;;;;5038570;28;20148;-82
2022/03/25 01:34:35;;;;;;;28.63;20.75;;;9.20;48.70;;;;;;5024433;28;20284;-82
2022/03/25 01:37:02;;;;;;;28.60;20.67;;;9.20;48.80;;;;;;5038251;28;20109;-83
2022/03/25 01:39:28;;;;;;;35.13;23.15;;;9.20;48.80;;;;;;5024591;28;20404;-82
2022/03/25 01:41:55;;;;;;;30.00;20.60;;;9.20;48.80;;;;;;5039810;28;20137;-83
2022/03/25 01:44:25;;;;;;;30.83;21.55;;;9.10;48.70;;;;;;5025005;28;20037;-83
2022/03/25 01:46:53;;;;;;;33.88;21.42;;;9.10;48.70;;;;;;5013844;28;20058;-83
2022/03/25 01:49:19;;;;;;;29.73;20.40;;;9.10;48.70;;;;;;5024479;28;20099;-83
2022/03/25 01:51:49;;;;;;;29.52;20.23;;;9.10;48.80;;;;;;5024660;28;20060;-82
2022/03/25 01:54:25;;;;;;;29.33;20.63;;;9.10;48.80;;;;;;5039951;28;20509;-81
2022/03/25 01:57:09;;;;;;;28.95;20.67;;;9.10;48.90;;;;;;5023832;28;20037;-82
2022/03/25 01:59:35;;;;;;;31.15;20.98;;;9.00;48.80;;;;;;5033392;28;20676;-83
2022/03/25 02:02:03;;;;;;;26.35;20.67;;;9.00;48.70;;;;;;5009694;28;20057;-83
2022/03/25 02:04:30;;;;;;;30.50;21.60;;;9.00;48.80;;;;;;5004872;28;20045;-84
2022/03/25 02:06:57;;;;;;;30.92;20.75;;;9.00;48.90;;;;;;5018858;28;20079;-84
2022/03/25 02:09:24;;;;;;;32.65;22.02;;;9.00;48.90;;;;;;5039923;28;20033;-84
2022/03/25 02:11:53;;;;;;;30.60;21.42;;;8.90;48.70;;;;;;5040499;28;20033;-84
2022/03/25 02:14:19;;;;;;;29.73;21.02;;;8.90;48.80;;;;;;5023997;28;20037;-84
2022/03/25 02:16:47;;;;;;;29.92;21.77;;;8.90;48.70;;;;;;5021301;28;20499;-84
2022/03/25 02:19:18;;;;;;;31.98;22.05;;;8.80;48.60;;;;;;5024217;28;20124;-84
2022/03/25 02:21:48;;;;;;;35.50;23.23;;;8.80;48.70;;;;;;5022769;28;20033;-83
2022/03/25 02:24:15;;;;;;;29.75;21.13;;;8.80;48.70;;;;;;5039510;28;20033;-83
2022/03/25 02:26:44;;;;;;;30.60;20.98;;;8.80;48.80;;;;;;5038433;28;20045;-84
2022/03/25 02:29:16;;;;;;;32.05;23.20;;;8.70;48.60;;;;;;5039431;28;20059;-83
2022/03/25 02:31:42;;;;;;;32.83;23.23;;;8.70;48.70;;;;;;5022795;28;20038;-84
2022/03/25 02:34:10;;;;;;;34.72;22.00;;;8.70;48.70;;;;;;5011914;28;20030;-83
2022/03/25 02:36:43;;;;;;;35.85;23.48;;;8.60;48.60;;;;;;5025400;28;20037;-84
2022/03/25 02:39:11;;;;;;;30.58;21.35;;;8.60;48.60;;;;;;5027017;28;20404;-85
2022/03/25 02:41:37;;;;;;;34.22;23.15;;;8.60;48.70;;;;;;5006546;28;20049;-85
2022/03/25 02:44:04;;;;;;;31.45;21.95;;;8.60;48.70;;;;;;5049870;28;20849;-84
2022/03/25 02:46:30;;;;;;;31.33;22.42;;;8.50;48.60;;;;;;5025758;28;20105;-83
2022/03/25 02:48:56;;;;;;;33.88;23.85;;;8.50;48.60;;;;;;5028561;28;20037;-84
2022/03/25 02:51:23;;;;;;;36.60;24.85;;;8.50;48.70;;;;;;5019391;28;20121;-83
2022/03/25 02:53:49;;;;;;;31.52;22.80;;;8.40;48.50;;;;;;5022576;28;20124;-84
2022/03/25 02:56:15;;;;;;;32.80;22.90;;;8.40;48.60;;;;;;5044546;28;20034;-83
2022/03/25 02:58:41;;;;;;;37.97;24.98;;;8.40;48.60;;;;;;5029127;28;20021;-82
2022/03/25 03:01:07;;;;;;;33.67;23.00;;;8.40;48.70;;;;;;5029225;28;20037;-83
2022/03/25 03:03:34;;;;;;;35.90;23.25;;;8.30;48.50;;;;;;5045698;28;20029;-83
2022/03/25 03:06:00;;;;;;;33.78;24.10;;;8.30;48.50;;;;;;5034987;28;20131;-83
2022/03/25 03:08:27;;;;;;;32.17;23.63;;;8.30;48.60;;;;;;5045110;28;20521;-83
2022/03/25 03:10:53;;;;;;;37.50;24.23;;;8.30;48.60;;;;;;5029655;28;20457;-83
2022/03/25 03:13:19;;;;;;;35.58;24.13;;;8.20;48.50;;;;;;5028668;28;20030;-83
2022/03/25 03:15:44;;;;;;;35.90;22.70;;;8.20;48.50;;;;;;5010108;28;20038;-83
2022/03/25 03:18:11;;;;;;;35.15;24.77;;;8.20;48.50;;;;;;5009589;28;20029;-82
2022/03/25 03:20:37;;;;;;;34.05;23.55;;;8.20;48.60;;;;;;5025444;28;20656;-83
2022/03/25 03:23:05;;;;;;;38.22;26.13;;;8.10;48.40;;;;;;5023408;28;20333;-83
2022/03/25 03:25:31;;;;;;;34.80;24.05;;;8.10;48.50;;;;;;5018617;28;20056;-84
2022/03/25 03:27:57;;;;;;;32.60;23.17;;;8.10;48.50;;;;;;5028395;28;20036;-84
2022/03/25 03:30:23;;;;;;;37.38;24.25;;;8.10;48.50;;;;;;5021412;28;20026;-83
2022/03/25 03:32:55;;;;;;;33.05;23.75;;;8.00;48.40;;;;;;5009218;28;20026;-85
2022/03/25 03:35:21;;;;;;;34.55;22.92;;;8.00;48.40;;;;;;5015123;28;20079;-83
2022/03/25 03:37:47;;;;;;;35.00;22.42;;;8.00;48.50;;;;;;5037835;28;20033;-83
2022/03/25 03:40:17;;;;;;;35.53;23.83;;;7.90;48.30;;;;;;5026946;28;20040;-83
2022/03/25 03:42:44;;;;;;;33.88;24.35;;;7.90;48.40;;;;;;5026360;28;20494;-83
2022/03/25 03:45:11;;;;;;;32.00;22.60;;;7.90;48.40;;;;;;5011145;28;20215;-83
2022/03/25 03:47:39;;;;;;;36.30;23.77;;;7.90;48.50;;;;;;5009770;28;20116;-83
2022/03/25 03:50:08;;;;;;;37.13;25.83;;;7.90;48.50;;;;;;5033637;28;20119;-83
2022/03/25 03:52:35;;;;;;;34.25;23.90;;;7.80;48.40;;;;;;5048738;28;20499;-82
2022/03/25 03:55:03;;;;;;;35.35;23.35;;;7.80;48.40;;;;;;5021153;28;20033;-82
2022/03/25 03:57:29;;;;;;;35.03;23.67;;;7.80;48.40;;;;;;5040339;28;20038;-83
2022/03/25 03:59:55;;;;;;;37.78;26.15;;;7.80;48.40;;;;;;5042585;28;20085;-83
2022/03/25 04:02:22;;;;;;;36.80;25.02;;;7.70;48.30;;;;;;5035433;28;20492;-83
2022/03/25 04:04:48;;;;;;;39.78;24.48;;;7.70;48.30;;;;;;5058661;28;20746;-83
2022/03/25 04:07:15;;;;;;;35.10;24.52;;;7.70;48.40;;;;;;5055689;28;20014;-85
2022/03/25 04:09:41;;;;;;;35.70;23.85;;;7.70;48.40;;;;;;5033705;28;20041;-84
2022/03/25 04:12:09;;;;;;;35.72;24.95;;;7.70;48.50;;;;;;5066664;28;20129;-85
2022/03/25 04:14:35;;;;;;;35.80;23.15;;;7.60;48.30;;;;;;5056599;28;20045;-85
2022/03/25 04:17:02;;;;;;;43.40;28.63;;;7.60;48.40;;;;;;5055967;28;20055;-83
2022/03/25 04:19:28;;;;;;;35.22;22.55;;;7.60;48.40;;;;;;5056875;28;20089;-79
2022/03/25 04:21:54;;;;;;;34.15;24.13;;;7.50;48.30;;;;;;5056501;28;20005;-83
2022/03/25 04:24:20;;;;;;;34.33;25.25;;;7.50;48.30;;;;;;5057257;28;20085;-83
2022/03/25 04:26:46;;;;;;;34.17;24.52;;;7.50;48.40;;;;;;5036628;28;20492;-84
2022/03/25 04:29:12;;;;;;;32.33;24.17;;;7.50;48.40;;;;;;5036046;28;20480;-85
2022/03/25 04:31:37;;;;;;;39.13;24.65;;;7.50;48.40;;;;;;5030990;28;20025;-83
2022/03/25 04:34:04;;;;;;;34.78;23.50;;;7.40;48.30;;;;;;5019327;28;20068;-83
2022/03/25 04:36:30;;;;;;;39.08;26.15;;;7.40;48.30;;;;;;5027771;28;20065;-84
2022/03/25 04:38:56;;;;;;;37.00;24.83;;;7.40;48.30;;;;;;5030732;28;20021;-85
2022/03/25 04:41:23;;;;;;;40.58;25.33;;;7.40;48.40;;;;;;5027692;28;20032;-84
2022/03/25 04:43:51;;;;;;;35.22;24.20;;;7.30;48.20;;;;;;5028213;28;20040;-83
2022/03/25 04:46:17;;;;;;;33.50;23.23;;;7.30;48.30;;;;;;5023511;28;20084;-84
2022/03/25 04:48:44;;;;;;;37.78;25.42;;;7.30;48.40;;;;;;5038106;28;20029;-83
2022/03/25 04:51:09;;;;;;;36.30;24.55;;;7.30;48.40;;;;;;5022399;28;20045;-85
2022/03/25 04:53:36;;;;;;;34.08;24.63;;;7.30;48.40;;;;;;5018805;28;20030;-85
2022/03/25 04:56:02;;;;;;;33.60;24.95;;;7.30;48.40;;;;;;5016181;28;20133;-87
2022/03/25 04:58:28;;;;;;;37.72;25.05;;;7.30;48.50;;;;;;5027427;28;20127;-86
2022/03/25 05:00:55;;;;;;;40.42;25.75;;;7.30;48.50;;;;;;5009384;28;20052;-83
2022/03/25 05:03:23;;;;;;;41.58;25.05;;;7.20;48.40;;;;;;5008489;28;20033;-84
2022/03/25 05:05:49;;;;;;;41.58;26.35;;;7.20;48.40;;;;;;5036568;28;20060;-83
2022/03/25 05:08:16;;;;;;;38.63;26.60;;;7.20;48.50;;;;;;5018801;28;20511;-83
2022/03/25 05:10:42;;;;;;;41.70;25.85;;;7.10;48.30;;;;;;5025898;28;20041;-83
2022/03/25 05:13:11;;;;;;;38.22;25.45;;;7.10;48.40;;;;;;5025140;28;20036;-83
2022/03/25 05:15:37;;;;;;;37.97;26.42;;;7.10;48.40;;;;;;5026529;28;20057;-82
2022/03/25 05:18:03;;;;;;;37.00;25.10;;;7.10;48.50;;;;;;5014298;28;20422;-82
2022/03/25 05:20:29;;;;;;;39.83;25.92;;;7.10;48.50;;;;;;5013863;28;20026;-82
2022/03/25 05:22:54;;;;;;;38.75;25.60;;;7.00;48.30;;;;;;5026232;28;20030;-84
2022/03/25 05:25:22;;;;;;;36.42;26.25;;;7.00;48.40;;;;;;5021709;28;20061;-86
2022/03/25 05:27:54;;;;;;;37.22;26.27;;;7.00;48.50;;;;;;5014401;28;20497;-87
2022/03/25 05:30:22;;;;;;;41.38;27.17;;;7.00;48.50;;;;;;5022819;28;20126;-83
2022/03/25 05:32:48;;;;;;;34.75;25.50;;;7.00;48.50;;;;;;5047248;28;20025;-82
2022/03/25 05:35:15;;;;;;;35.22;25.33;;;7.00;49.20;;;;;;5012187;28;20770;-83
2022/03/25 05:37:40;;;;;;;39.97;27.05;;;7.00;48.60;;;;;;5038168;28;20044;-84
2022/03/25 05:40:08;;;;;;;37.47;24.52;;;6.90;48.50;;;;;;5043032;28;20708;-85
2022/03/25 05:42:35;;;;;;;38.20;26.25;;;6.90;48.50;;;;;;5029465;28;20037;-85
2022/03/25 05:45:03;;;;;;;38.10;25.73;;;6.80;48.30;;;;;;5025546;28;20049;-83
2022/03/25 05:47:29;;;;;;;37.38;25.27;;;6.80;48.40;;;;;;5032211;28;20048;-82
2022/03/25 05:49:55;;;;;;;41.85;27.33;;;6.90;48.60;;;;;;5026393;28;20061;-81
2022/03/25 05:52:21;;;;;;;36.83;25.70;;;6.80;48.50;;;;;;5026614;28;20107;-83
2022/03/25 05:54:47;;;;;;;40.63;25.45;;;6.80;48.50;;;;;;5007792;28;20026;-83
2022/03/25 05:57:12;;;;;;;39.45;26.38;;;6.80;48.50;;;;;;5012916;28;20030;-84
2022/03/25 05:59:38;;;;;;;43.85;26.23;;;6.80;48.60;;;;;;5011377;28;20492;-83
2022/03/25 06:02:04;;;;;;;38.65;26.67;;;6.80;48.60;;;;;;5007442;28;20030;-83
2022/03/25 06:04:30;;;;;;;36.75;27.48;;;6.70;48.50;;;;;;5018475;28;20408;-83
2022/03/25 06:06:56;;;;;;;44.38;26.55;;;6.70;48.50;;;;;;5049437;28;20044;-84
2022/03/25 06:09:21;;;;;;;39.35;27.95;;;6.70;48.50;;;;;;5033669;28;20105;-85
2022/03/25 06:11:47;;;;;;;40.08;26.25;;;6.70;49.10;;;;;;5023937;28;20100;-85
2022/03/25 06:14:13;;;;;;;40.08;26.95;;;6.70;48.60;;;;;;5045845;28;20036;-85
2022/03/25 06:16:40;;;;;;;39.50;26.60;;;6.70;48.60;;;;;;5047368;28;20091;-83
2022/03/25 06:19:06;;;;;;;39.60;27.10;;;6.60;48.50;;;;;;5030266;28;20576;-89
2022/03/25 06:21:32;;;;;;;38.33;26.75;;;6.70;48.70;;;;;;5039343;28;20124;-93
2022/03/25 06:23:58;;;;;;;39.85;26.10;;;6.70;48.70;;;;;;5029836;28;20121;-88
2022/03/25 06:26:24;;;;;;;41.88;28.13;;;6.60;48.50;;;;;;5028876;28;20066;-80
2022/03/25 06:28:50;;;;;;;40.65;26.85;;;6.60;48.50;;;;;;5035542;28;20033;-79
2022/03/25 06:31:15;;;;;;;38.75;26.20;;;6.60;48.50;;;;;;5048175;28;20033;-77
2022/03/25 06:33:41;;;;;;;41.22;28.08;;;6.70;48.80;;;;;;5024193;28;20033;-77
2022/03/25 06:36:09;;;;;;;41.92;27.63;;;6.70;48.80;;;;;;5027482;28;20031;-77
2022/03/25 06:38:35;;;;;;;40.10;28.05;;;6.70;48.80;;;;;;5030526;28;20762;-76
2022/03/25 06:41:02;;;;;;;46.33;29.63;;;6.70;48.80;;;;;;5033447;28;20144;-79
2022/03/25 06:43:28;;;;;;;48.22;31.08;;;6.70;48.80;;;;;;5027824;28;20121;-81
2022/03/25 06:45:54;;;;;;;46.42;31.83;;;6.80;49.00;;;;;;5031969;28;20048;-81
2022/03/25 06:48:20;;;;;;;48.72;29.13;;;6.80;49.00;;;;;;5040972;28;20045;-81
2022/03/25 06:50:47;;;;;;;46.78;29.98;;;6.80;49.00;;;;;;5027241;28;20102;-82
2022/03/25 06:53:13;;;;;;;47.13;28.73;;;6.80;49.10;;;;;;5020254;28;20150;-84
2022/03/25 06:55:40;;;;;;;43.97;27.88;;;6.90;49.60;;;;;;5035661;28;20037;-83
2022/03/25 06:58:09;;;;;;;45.25;30.27;;;6.90;49.90;;;;;;5032962;28;20431;-87
2022/03/25 07:00:35;;;;;;;41.53;28.70;;;7.00;50.10;;;;;;5060542;28;20041;-93
2022/03/25 07:03:01;;;;;;;40.42;28.65;;;7.10;50.20;;;;;;5031846;28;20104;-86
2022/03/25 07:05:30;;;;;;;45.78;30.27;;;7.10;50.20;;;;;;5033652;28;20068;-88
2022/03/25 07:07:57;;;;;;;42.20;29.05;;;7.20;50.30;;;;;;5027412;28;20187;-87
2022/03/25 07:10:23;;;;;;;41.67;28.00;;;7.20;50.30;;;;;;5031122;28;20033;-87
2022/03/25 07:12:53;;;;;;;42.80;29.02;;;7.30;50.30;;;;;;5037739;28;20041;-93
2022/03/25 07:15:20;;;;;;;43.45;29.20;;;7.40;50.40;;;;;;5026137;28;20504;-90
2022/03/25 07:17:46;;;;;;;44.63;28.17;;;7.40;50.30;;;;;;5031860;28;20045;-88
2022/03/25 07:20:15;;;;;;;43.25;28.38;;;7.50;50.40;;;;;;5033054;28;20048;-87
2022/03/25 07:22:46;;;;;;;45.58;30.00;;;7.50;50.30;;;;;;5028023;28;20054;-86
2022/03/25 07:25:13;;;;;;;45.40;27.40;;;7.60;50.40;;;;;;5031305;28;20041;-88
2022/03/25 07:27:40;;;;;;;43.90;29.85;;;7.70;50.50;;;;;;5029645;28;20029;-86
2022/03/25 07:30:07;;;;;;;40.17;28.13;;;7.70;50.40;;;;;;5019853;28;20138;-86
2022/03/25 07:32:33;;;;;;;42.13;28.30;;;7.70;50.30;;;;;;5022571;28;20030;-85
2022/03/25 07:35:00;;;;;;;40.75;28.50;;;7.80;50.50;;;;;;5006923;28;20044;-88
2022/03/25 07:37:26;;;;;;;42.38;28.40;;;7.80;50.40;;;;;;5031033;28;20689;-88
2022/03/25 07:39:52;;;;;;;43.85;29.30;;;7.90;50.50;;;;;;5039180;28;20108;-85
2022/03/25 07:42:19;;;;;;;44.00;30.83;;;8.00;50.60;;;;;;5022153;28;20327;-84
2022/03/25 07:44:46;;;;;;;44.47;29.40;;;8.10;50.60;;;;;;4999762;28;20081;-89
2022/03/25 07:47:13;;;;;;;44.38;29.55;;;8.20;50.60;;;;;;5024553;28;20132;-88
2022/03/25 07:49:40;;;;;;;42.17;29.42;;;8.30;50.50;;;;;;5019532;28;20053;-88
2022/03/25 07:52:14;;;;;;;44.45;32.13;;;8.50;50.60;;;;;;5031871;28;20036;-90
2022/03/25 07:54:40;;;;;;;43.80;30.42;;;8.60;50.50;;;;;;5012592;28;20029;-93
2022/03/25 07:57:06;;;;;;;40.65;29.77;;;8.70;50.50;;;;;;5010489;28;20371;-94
2022/03/25 07:59:32;;;;;;;41.05;30.33;;;8.80;50.50;;;;;;5039028;28;20040;-91
2022/03/25 08:01:57;;;;;;;45.38;30.67;;;8.80;50.30;;;;;;5020117;28;20047;-92
2022/03/25 08:04:24;;;;;;;40.55;29.33;;;8.90;50.40;;;;;;5028537;28;20142;-91
2022/03/25 08:06:51;;;;;;;46.08;30.23;;;9.00;50.50;;;;;;5015058;28;20504;-96
2022/03/25 08:09:16;;;;;;;40.58;30.13;;;9.10;50.50;;;;;;5043570;28;20478;-89
2022/03/25 08:11:45;;;;;;;39.05;29.98;;;9.10;50.40;;;;;;5035101;28;20091;-90
2022/03/25 08:14:13;;;;;;;46.00;31.98;;;9.20;50.50;;;;;;5018902;28;20112;-88
2022/03/25 08:16:39;;;;;;;50.63;32.63;;;9.30;50.60;;;;;;5018781;28;20041;-79
2022/03/25 08:19:05;;;;;;;44.20;30.33;;;9.30;50.50;;;;;;5019771;28;20120;-80
2022/03/25 08:21:32;;;;;;;46.33;32.45;;;9.40;50.70;;;;;;5017858;28;20080;-80
2022/03/25 08:29:27;;;;;;;47.80;31.55;;;9.60;50.70;;;;;;5023919;28;20463;-79
2022/03/25 08:31:53;;;;;;;48.88;32.78;;;9.70;50.70;;;;;;5022492;28;20092;-80
2022/03/25 08:34:20;;;;;;;46.78;31.88;;;9.70;50.70;;;;;;5018871;28;20029;-79
2022/03/25 08:36:48;;;;;;;45.75;31.58;;;9.80;50.70;;;;;;5023965;28;20033;-80
2022/03/25 08:39:14;;;;;;;44.92;33.22;;;9.90;50.70;;;;;;5003628;28;20491;-79
2022/03/25 08:41:41;;;;;;;42.90;31.10;;;10.00;50.80;;;;;;5010533;28;20125;-79
2022/03/25 08:44:08;;;;;;;46.78;32.25;;;10.10;50.90;;;;;;5014591;28;20042;-79
2022/03/25 08:46:35;;;;;;;46.85;33.25;;;10.20;50.90;;;;;;5023784;28;20041;-79
2022/03/25 08:49:01;;;;;;;46.50;32.22;;;10.20;50.80;;;;;;5018267;28;20486;-78
2022/03/25 08:51:27;;;;;;;45.75;32.47;;;10.30;50.80;;;;;;5022840;28;20080;-79
2022/03/25 08:53:53;;;;;;;49.25;33.47;;;10.40;50.90;;;;;;5016960;28;20112;-79
2022/03/25 08:56:21;;;;;;;45.95;33.05;;;10.50;50.90;;;;;;5017095;28;20060;-80
2022/03/25 08:58:47;;;;;;;48.90;32.05;;;10.50;50.80;;;;;;5017149;28;20425;-80
2022/03/25 09:01:13;;;;;;;49.92;34.08;;;10.60;50.90;;;;;;5038623;28;20040;-80
2022/03/25 09:03:39;;;;;;;49.70;33.55;;;10.60;50.70;;;;;;5043847;28;20541;-82
2022/03/25 09:06:05;;;;;;;51.10;33.95;;;10.70;50.80;;;;;;5018951;28;20517;-80
2022/03/25 09:08:32;;;;;;;45.47;34.22;;;10.80;50.90;;;;;;5019813;28;20033;-81
2022/03/25 09:10:58;;;;;;;49.30;35.60;;;10.80;50.80;;;;;;5024843;28;20395;-81
2022/03/25 09:13:24;;;;;;;51.45;35.60;;;10.90;50.90;;;;;;5015046;28;20029;-79
2022/03/25 09:15:50;;;;;;;48.42;32.88;;;10.90;50.90;;;;;;5024323;28;20199;-78
2022/03/25 09:18:16;;;;;;;50.90;35.85;;;11.00;51.00;;;;;;5020093;28;20034;-79
2022/03/25 09:20:42;;;;;;;49.85;35.63;;;11.10;51.10;;;;;;5019516;28;20029;-79
2022/03/25 09:23:08;;;;;;;51.35;34.55;;;11.10;51.00;;;;;;5023283;28;20483;-80
2022/03/25 09:25:35;;;;;;;52.03;35.70;;;11.20;51.00;;;;;;5016614;28;20064;-80
2022/03/25 09:28:01;;;;;;;52.10;34.65;;;11.20;50.90;;;;;;5040870;28;20033;-81
2022/03/25 09:30:27;;;;;;;51.05;36.05;;;11.30;50.90;;;;;;5004434;28;20034;-80
2022/03/25 09:32:53;;;;;;;52.50;36.75;;;11.40;50.90;;;;;;5014572;28;20026;-80
2022/03/25 09:35:21;;;;;;;49.28;34.00;;;11.50;50.90;;;;;;5017052;28;20060;-80
2022/03/25 09:37:49;;;;;;;53.63;35.80;;;11.60;51.00;;;;;;5020294;28;20140;-80
2022/03/25 09:40:23;;;;;;;50.70;34.08;;;11.70;51.00;;;;;;5032977;28;20100;-81
2022/03/25 09:42:51;;;;;;;49.35;33.90;;;11.80;50.90;;;;;;5017646;28;20061;-81
2022/03/25 09:45:19;;;;;;;67.72;38.25;;;11.90;50.90;;;;;;5027508;28;20048;-79
2022/03/25 09:47:47;;;;;;;48.95;33.35;;;11.90;50.70;;;;;;5028406;28;20064;-81
2022/03/25 09:50:21;;;;;;;53.05;35.55;;;12.10;51.00;;;;;;5015488;28;20399;-81
2022/03/25 09:52:48;;;;;;;51.35;34.38;;;12.10;50.90;;;;;;5008656;28;20030;-82
2022/03/25 09:55:14;;;;;;;46.70;34.58;;;12.20;51.00;;;;;;5006908;28;20032;-79
2022/03/25 09:57:41;;;;;;;52.80;34.78;;;12.30;51.00;;;;;;5014157;28;20036;-80
2022/03/25 10:00:12;;;;;;;55.33;35.78;;;12.30;50.90;;;;;;5022742;28;20351;-78
2022/03/25 10:02:39;;;;;;;55.45;36.17;;;12.40;51.10;;;;;;5010304;28;20033;-81
2022/03/25 10:05:21;;;;;;;50.50;34.40;;;12.40;51.00;;;;;;5042471;28;20033;-80
2022/03/25 10:07:54;;;;;;;50.85;33.90;;;12.50;51.10;;;;;;5017865;28;20068;-79
2022/03/25 10:10:21;;;;;;;;;;;12.60;51.10;;;;;;5031821;28;20608;-80
2022/03/25 10:13:07;;;;;;;52.35;34.45;;;12.60;50.90;;;;;;5019501;28;19913;-80
2022/03/25 10:15:37;;;;;;;51.50;35.28;;;12.70;51.00;;;;;;5037247;28;20361;-78
2022/03/25 10:18:08;;;;;;;47.40;34.35;;;12.80;51.00;;;;;;5009929;28;20030;-80
2022/03/25 10:20:37;;;;;;;45.60;33.97;;;12.80;50.80;;;;;;5020548;28;20033;-79
2022/03/25 10:23:09;;;;;;;54.90;35.67;;;12.90;51.00;;;;;;5009462;28;20030;-80
2022/03/25 10:25:39;;;;;;;60.63;38.47;;;12.90;50.80;;;;;;5010200;28;20344;-79
2022/03/25 10:28:20;;;;;;;49.65;34.17;;;12.90;50.70;;;;;;5029962;28;20270;-81
2022/03/25 10:30:52;;;;;;;50.17;34.60;;;13.00;50.80;;;;;;5036743;28;20827;-80
2022/03/25 10:33:21;;;;;;;49.65;34.88;;;13.10;50.90;;;;;;5031758;28;20071;-82
2022/03/25 10:36:01;;;;;;;46.45;33.75;;;13.20;50.80;;;;;;5021917;28;20558;-81
2022/03/25 10:38:41;;;;;;;50.35;34.85;;;13.30;50.80;;;;;;5010621;28;20050;-82
2022/03/25 10:41:07;;;;;;;55.38;35.05;;;13.40;50.70;;;;;;5018370;28;20071;-80
2022/03/25 10:43:34;;;;;;;51.08;35.38;;;13.50;50.70;;;;;;5010310;28;20104;-81
2022/03/25 10:45:59;;;;;;;49.08;35.42;;;13.60;50.70;;;;;;5028709;28;20037;-79
2022/03/25 10:48:25;;;;;;;48.75;33.85;;;13.70;50.60;;;;;;5024920;28;20056;-79
2022/03/25 10:51:10;;;;;;;48.90;34.20;;;13.80;50.60;;;;;;5021768;28;20033;-78
2022/03/25 10:53:38;;;;;;;45.55;33.97;;;13.80;50.40;;;;;;5033906;28;20044;-79
2022/03/25 10:56:06;;;;;;;47.28;34.03;;;13.90;50.40;;;;;;5017192;28;20339;-79
2022/03/25 10:58:34;;;;;;;50.05;35.08;;;14.00;50.50;;;;;;5035310;28;20044;-81
2022/03/25 11:01:01;;;;;;;50.97;34.47;;;14.00;50.30;;;;;;5014592;28;20064;-79
2022/03/25 11:03:28;;;;;;;47.85;33.45;;;14.10;50.30;;;;;;5024557;28;20257;-80
2022/03/25 11:05:54;;;;;;;47.38;33.45;;;14.20;50.90;;;;;;5042618;28;20041;-80
2022/03/25 11:08:21;;;;;;;46.35;32.20;;;14.30;50.30;;;;;;5026317;28;20041;-78
2022/03/25 11:10:48;;;;;;;44.92;33.88;;;14.30;50.10;;;;;;5027507;28;20540;-79
2022/03/25 11:13:14;;;;;;;45.35;32.05;;;14.40;50.00;;;;;;5012345;28;20485;-79
2022/03/25 11:15:40;;;;;;;48.17;32.85;;;14.50;50.00;;;;;;5025192;28;20032;-88
2022/03/25 11:18:06;;;;;;;48.00;33.92;;;14.60;50.10;;;;;;5029735;28;20220;-78
2022/03/25 11:20:33;;;;;;;49.17;34.30;;;14.70;50.00;;;;;;5037180;28;20053;-78
2022/03/25 11:23:08;;;;;;;47.75;34.53;;;14.80;50.00;;;;;;5018651;28;20075;-79
2022/03/25 11:25:40;;;;;;;46.22;32.88;;;14.80;49.80;;;;;;5018847;28;20037;-79
2022/03/25 11:28:09;;;;;;;46.45;31.10;;;14.90;49.70;;;;;;5020577;28;20028;-79
2022/03/25 11:30:36;;;;;;;43.88;31.20;;;15.00;50.30;;;;;;5010514;28;20029;-80
2022/03/25 11:33:04;;;;;;;47.45;32.85;;;15.10;49.70;;;;;;5023817;28;20555;-79
2022/03/25 11:35:32;;;;;;;47.80;33.50;;;15.20;49.60;;;;;;5016242;28;20037;-79
2022/03/25 11:38:10;;;;;;;44.88;32.25;;;15.30;49.50;;;;;;5018491;28;20041;-79
2022/03/25 11:40:42;;;;;;;46.45;32.88;;;15.40;49.30;;;;;;5022924;28;20473;-79
2022/03/25 11:43:20;;;;;;;43.30;30.98;;;15.50;49.40;;;;;;5012789;28;20030;-79
2022/03/25 11:46:06;;;;;;;46.65;32.05;;;15.60;49.60;;;;;;5038688;28;20044;-79
2022/03/25 11:48:38;;;;;;;33.72;24.42;;;15.70;49.20;;;;;;5024938;28;20553;-85
2022/03/25 11:51:28;;;;;;;27.27;20.35;;;15.70;49.20;;;;;;5021390;28;20441;-80
2022/03/25 11:53:55;;;;;;;27.63;21.02;;;15.90;50.10;;;;;;5014422;28;20029;-80
2022/03/25 11:56:21;;;;;;;29.55;21.70;;;16.00;50.10;;;;;;5019932;28;20042;-79
2022/03/25 11:59:00;;;;;;;27.05;19.75;;;16.20;50.40;;;;;;5023519;28;20037;-77
2022/03/25 12:01:27;;;;;;;26.20;19.70;;;16.30;50.50;;;;;;5016427;28;20075;-79
2022/03/25 12:03:55;;;;;;;27.63;21.33;;;16.40;50.60;;;;;;5037239;28;20038;-78
2022/03/25 12:06:21;;;;;;;31.92;21.17;;;16.50;50.70;;;;;;5022294;28;20591;-79
2022/03/25 12:09:15;;;;;;;27.77;20.38;;;16.60;50.70;;;;;;5024296;28;20065;-79
2022/03/25 12:11:58;;;;;;;29.83;20.98;;;16.60;50.30;;;;;;5023601;28;20059;-82
2022/03/25 12:14:30;;;;;;;28.15;19.55;;;16.70;50.30;;;;;;5031427;28;20029;-84
2022/03/25 12:17:08;;;;;;;28.95;20.83;;;16.80;50.20;;;;;;5039201;28;20575;-81
2022/03/25 12:19:38;;;;;;;29.35;19.05;;;16.80;49.20;;;;;;5021663;28;20029;-79
2022/03/25 12:22:23;;;;;;;29.13;18.75;;;16.90;49.20;;;;;;5039691;28;20044;-79
2022/03/25 12:24:51;;;;;;;24.45;18.77;;;16.90;48.60;;;;;;5021922;28;20548;-78
2022/03/25 12:27:18;;;;;;;25.55;19.55;;;17.00;48.80;;;;;;5012496;28;20129;-78
2022/03/25 12:29:50;;;;;;;24.10;19.73;;;17.00;48.50;;;;;;5016680;28;20290;-79
2022/03/25 12:32:22;;;;;;;28.05;20.08;;;17.10;48.40;;;;;;5010866;28;20034;-78
2022/03/25 12:34:54;;;;;;;31.13;20.10;;;17.10;48.00;;;;;;5046915;28;20052;-80
2022/03/25 12:37:29;;;;;;;27.08;19.13;;;17.30;48.10;;;;;;5039748;28;20048;-78
2022/03/25 12:39:55;;;;;;;25.02;17.70;;;17.30;47.80;;;;;;5051435;28;20013;-77
2022/03/25 12:42:21;;;;;;;27.65;18.85;;;17.30;47.60;;;;;;5036411;28;20072;-77